Time;durP1;ratioP1;P1;durP2;ratioP2;P2;SDS_P1;SDS_P2;PMS_P1;PMS_P2;Temp;Humidity;BMP_temperature;BMP_pressure;BME280_temperature;BME280_humidity;BME280_pressure;Samples;Min_cycle;Max_cycle;Signal;HPM_P1;HPM_P2
2021/10/04 00:00:17;;;;;;;22.63;3.17;;;11.40;99.90;;;;;;4991856;28;20054;-61
2021/10/04 00:02:43;;;;;;;15.90;2.95;;;11.40;99.90;;;;;;4990978;28;20477;-61
2021/10/04 00:05:10;;;;;;;15.57;3.67;;;11.40;99.90;;;;;;4991355;28;20399;-62
2021/10/04 00:07:36;;;;;;;19.10;3.30;;;11.40;99.90;;;;;;4991177;28;20412;-59
2021/10/04 00:10:11;;;;;;;24.27;3.83;;;11.50;99.90;;;;;;4991542;28;20041;-61
2021/10/04 00:12:38;;;;;;;22.50;3.78;;;11.40;99.90;;;;;;4990799;28;20027;-59
2021/10/04 00:15:07;;;;;;;20.83;3.38;;;11.40;99.90;;;;;;4990801;28;20027;-61
2021/10/04 00:17:33;;;;;;;16.52;3.45;;;11.40;99.90;;;;;;4990056;28;20060;-59
2021/10/04 00:19:58;;;;;;;18.00;2.90;;;11.40;99.90;;;;;;4990537;28;20066;-60
2021/10/04 00:22:24;;;;;;;15.48;3.38;;;11.40;99.90;;;;;;4989987;28;20048;-57
2021/10/04 00:24:50;;;;;;;23.98;3.10;;;11.40;99.90;;;;;;4990367;28;20558;-62
2021/10/04 00:27:15;;;;;;;22.90;3.58;;;11.40;99.90;;;;;;4991107;28;20537;-60
2021/10/04 00:29:41;;;;;;;18.13;3.15;;;11.40;99.90;;;;;;4989040;28;20041;-61
2021/10/04 00:32:07;;;;;;;18.67;3.10;;;11.50;99.90;;;;;;4991325;28;20030;-59
2021/10/04 00:34:32;;;;;;;22.15;3.05;;;11.50;99.90;;;;;;4989355;28;20404;-63
2021/10/04 00:36:59;;;;;;;19.88;3.20;;;11.50;99.90;;;;;;4990597;28;20047;-59
2021/10/04 00:39:25;;;;;;;22.48;3.95;;;11.50;99.90;;;;;;4990395;28;20026;-62
2021/10/04 00:41:51;;;;;;;19.80;3.30;;;11.40;99.90;;;;;;4989639;28;20105;-58
2021/10/04 00:44:17;;;;;;;19.40;3.47;;;11.50;99.90;;;;;;4990445;28;20030;-61
2021/10/04 00:46:42;;;;;;;19.23;3.42;;;11.40;99.90;;;;;;4990949;28;20057;-60
2021/10/04 00:49:08;;;;;;;16.63;3.28;;;11.50;99.90;;;;;;4989457;28;20033;-60
2021/10/04 00:51:34;;;;;;;16.45;2.83;;;11.50;99.90;;;;;;4990958;28;20494;-59
2021/10/04 00:54:00;;;;;;;19.30;3.13;;;11.60;99.90;;;;;;4990155;28;20105;-58
2021/10/04 00:56:26;;;;;;;18.38;3.50;;;11.50;99.90;;;;;;4991184;28;20036;-58
2021/10/04 00:58:52;;;;;;;20.45;3.00;;;11.60;99.90;;;;;;4989627;28;20069;-60
2021/10/04 01:01:18;;;;;;;14.20;3.33;;;11.50;99.90;;;;;;4990788;28;20026;-59
2021/10/04 01:03:45;;;;;;;18.80;2.80;;;11.50;99.90;;;;;;4990341;28;20026;-58
2021/10/04 01:06:11;;;;;;;15.50;2.88;;;11.50;99.90;;;;;;4988937;28;20093;-58
2021/10/04 01:08:37;;;;;;;17.75;3.22;;;11.50;99.90;;;;;;4984297;28;20097;-63
2021/10/04 01:11:03;;;;;;;17.88;2.97;;;11.40;99.90;;;;;;4989448;28;20038;-58
2021/10/04 01:13:28;;;;;;;18.80;3.22;;;11.40;99.90;;;;;;4989206;28;20105;-59
2021/10/04 01:15:55;;;;;;;14.07;3.20;;;11.40;99.90;;;;;;4990342;28;20469;-61
2021/10/04 01:18:22;;;;;;;13.43;2.97;;;11.40;99.90;;;;;;4990516;28;20026;-60
2021/10/04 01:20:48;;;;;;;21.35;3.70;;;11.30;99.90;;;;;;4994361;28;20121;-60
2021/10/04 01:23:13;;;;;;;16.85;3.13;;;11.20;99.90;;;;;;4993703;28;20109;-59
2021/10/04 01:25:39;;;;;;;13.48;2.55;;;11.20;99.90;;;;;;4994379;28;20035;-59
2021/10/04 01:28:05;;;;;;;21.02;3.53;;;11.20;99.90;;;;;;4993798;28;20536;-60
2021/10/04 01:30:32;;;;;;;19.55;3.40;;;11.30;99.90;;;;;;4993767;28;20050;-59
2021/10/04 01:32:59;;;;;;;16.13;2.95;;;11.30;99.90;;;;;;4994122;28;20030;-59
2021/10/04 01:35:25;;;;;;;17.95;3.17;;;11.30;99.90;;;;;;4993911;28;20517;-61
2021/10/04 01:37:52;;;;;;;21.65;3.90;;;11.30;99.90;;;;;;4994886;28;20513;-60
2021/10/04 01:40:18;;;;;;;25.67;3.60;;;11.30;99.90;;;;;;4993334;28;20470;-59
2021/10/04 01:42:45;;;;;;;25.10;3.25;;;11.30;99.90;;;;;;4994212;28;20524;-60
2021/10/04 01:45:16;;;;;;;22.63;3.40;;;11.30;99.90;;;;;;4992496;28;20504;-60
2021/10/04 01:47:42;;;;;;;20.10;3.30;;;11.30;99.90;;;;;;4994282;28;20081;-60
2021/10/04 01:50:09;;;;;;;21.30;3.30;;;11.20;99.90;;;;;;4993297;28;20034;-59
2021/10/04 01:52:36;;;;;;;19.30;3.97;;;11.20;99.90;;;;;;4994086;28;20022;-60
2021/10/04 01:55:02;;;;;;;20.42;3.17;;;11.20;99.90;;;;;;4992896;28;20144;-60
2021/10/04 01:57:28;;;;;;;22.67;3.63;;;11.20;99.90;;;;;;4993751;28;20523;-60
2021/10/04 01:59:53;;;;;;;20.02;3.30;;;11.20;99.90;;;;;;4992690;28;20389;-59
2021/10/04 02:02:20;;;;;;;14.50;2.80;;;11.20;99.90;;;;;;4993702;28;20037;-59
2021/10/04 02:04:46;;;;;;;22.77;3.45;;;11.20;99.90;;;;;;4992551;28;20069;-60
2021/10/04 02:07:12;;;;;;;22.13;3.60;;;11.10;99.90;;;;;;4993622;28;20087;-59
2021/10/04 02:09:37;;;;;;;20.58;3.17;;;11.10;99.90;;;;;;4992761;28;20030;-58
2021/10/04 02:12:03;;;;;;;25.10;3.33;;;11.00;99.90;;;;;;4993028;28;20030;-59
2021/10/04 02:14:29;;;;;;;26.83;3.95;;;11.00;99.90;;;;;;4992325;28;20026;-59
2021/10/04 02:16:55;;;;;;;18.65;3.55;;;11.10;99.90;;;;;;4993371;28;20037;-60
2021/10/04 02:19:21;;;;;;;22.98;3.50;;;11.10;99.90;;;;;;4992565;28;20066;-58
2021/10/04 02:21:46;;;;;;;25.60;3.40;;;11.10;99.90;;;;;;4992373;28;20088;-62
2021/10/04 02:24:12;;;;;;;19.27;4.03;;;11.00;99.90;;;;;;4992610;28;20029;-60
2021/10/04 02:26:41;;;;;;;22.65;2.90;;;11.00;99.90;;;;;;4993309;28;20042;-60
2021/10/04 02:29:07;;;;;;;22.90;3.58;;;11.00;99.90;;;;;;4992111;28;20125;-60
2021/10/04 02:31:33;;;;;;;19.48;3.13;;;11.10;99.90;;;;;;4992085;28;20400;-58
2021/10/04 02:33:59;;;;;;;15.40;3.35;;;11.00;99.90;;;;;;4992031;28;20042;-58
2021/10/04 02:36:25;;;;;;;18.80;3.15;;;11.10;99.90;;;;;;4992570;28;20049;-61
2021/10/04 02:38:54;;;;;;;21.50;3.63;;;11.10;99.90;;;;;;4992385;28;20038;-60
2021/10/04 02:41:20;;;;;;;18.75;3.08;;;11.10;99.90;;;;;;4992922;28;20057;-61
2021/10/04 02:43:45;;;;;;;32.00;3.97;;;11.00;99.90;;;;;;4991367;28;20124;-59
2021/10/04 02:46:11;;;;;;;21.00;3.08;;;11.00;99.90;;;;;;4992414;28;20045;-59
2021/10/04 02:48:37;;;;;;;23.80;3.38;;;10.90;99.90;;;;;;4991901;28;20066;-59
2021/10/04 02:51:03;;;;;;;22.48;3.47;;;10.80;99.90;;;;;;4992279;28;20034;-59
2021/10/04 02:53:29;;;;;;;23.13;3.72;;;10.80;99.90;;;;;;4992351;28;20057;-60
2021/10/04 02:55:55;;;;;;;18.13;3.00;;;10.90;99.90;;;;;;4992317;28;20434;-61
2021/10/04 02:58:20;;;;;;;17.55;3.28;;;10.90;99.90;;;;;;4992250;28;20429;-60
2021/10/04 03:00:46;;;;;;;16.02;3.13;;;11.00;99.90;;;;;;4991340;28;20027;-60
2021/10/04 03:03:12;;;;;;;20.73;3.53;;;11.00;99.90;;;;;;4992502;28;20113;-59
2021/10/04 03:05:37;;;;;;;22.25;3.65;;;11.00;99.90;;;;;;4990707;28;20050;-60
2021/10/04 03:08:05;;;;;;;17.65;3.58;;;11.10;99.90;;;;;;4990986;28;20026;-60
2021/10/04 03:10:32;;;;;;;18.65;3.60;;;11.10;99.90;;;;;;4991967;28;20034;-60
2021/10/04 03:12:58;;;;;;;19.08;3.55;;;11.10;99.90;;;;;;4992592;28;20037;-58
2021/10/04 03:15:24;;;;;;;18.80;3.65;;;11.10;99.90;;;;;;4990819;28;20477;-60
2021/10/04 03:17:49;;;;;;;21.92;3.60;;;11.10;99.90;;;;;;4992052;28;20041;-60
2021/10/04 03:20:15;;;;;;;26.23;3.78;;;11.20;99.90;;;;;;4991517;28;20030;-59
2021/10/04 03:22:41;;;;;;;19.75;3.67;;;11.20;99.90;;;;;;4991286;28;20026;-60
2021/10/04 03:25:08;;;;;;;19.17;3.90;;;11.10;99.90;;;;;;4991269;28;20436;-58
2021/10/04 03:27:34;;;;;;;20.90;3.63;;;11.10;99.90;;;;;;4992216;28;20041;-60
2021/10/04 03:30:00;;;;;;;33.78;4.10;;;11.10;99.90;;;;;;4990500;28;20545;-59
2021/10/04 03:32:25;;;;;;;22.27;3.67;;;11.20;99.90;;;;;;4992068;28;20022;-58
2021/10/04 03:34:51;;;;;;;27.42;3.70;;;11.30;99.90;;;;;;4991136;28;20097;-59
2021/10/04 03:37:17;;;;;;;22.25;3.22;;;11.30;99.90;;;;;;4991978;28;20366;-60
2021/10/04 03:39:43;;;;;;;31.17;3.67;;;11.30;99.90;;;;;;4991273;28;20512;-59
2021/10/04 03:42:09;;;;;;;18.67;3.55;;;11.30;99.90;;;;;;4991309;28;20481;-60
2021/10/04 03:44:35;;;;;;;16.27;3.15;;;11.40;99.90;;;;;;4990877;28;20121;-60
2021/10/04 03:47:01;;;;;;;15.82;3.25;;;11.30;99.90;;;;;;4991711;28;20106;-58
2021/10/04 03:49:27;;;;;;;20.83;3.78;;;11.40;99.90;;;;;;4991000;28;20026;-58
2021/10/04 03:51:52;;;;;;;21.17;3.30;;;11.40;99.90;;;;;;4991769;28;20113;-59
2021/10/04 03:54:18;;;;;;;20.02;3.42;;;11.40;99.90;;;;;;4991024;28;20042;-62
2021/10/04 03:56:44;;;;;;;26.77;3.83;;;11.30;99.90;;;;;;4991973;28;20027;-59
2021/10/04 03:59:10;;;;;;;20.23;2.90;;;11.30;99.90;;;;;;4990766;28;20794;-58
2021/10/04 04:01:36;;;;;;;20.30;3.45;;;11.30;99.90;;;;;;4991299;28;20030;-62
2021/10/04 04:04:02;;;;;;;15.85;3.20;;;11.40;99.90;;;;;;4991347;28;20030;-58
2021/10/04 04:06:28;;;;;;;27.95;3.53;;;11.40;99.90;;;;;;4990843;28;20173;-58
2021/10/04 04:08:53;;;;;;;25.50;4.13;;;11.50;99.90;;;;;;4991465;28;20049;-58
2021/10/04 04:11:19;;;;;;;21.90;3.30;;;11.50;99.90;;;;;;4990908;28;20104;-59
2021/10/04 04:13:45;;;;;;;18.98;3.53;;;11.40;99.90;;;;;;4991828;28;20033;-59
2021/10/04 04:16:11;;;;;;;20.67;3.50;;;11.50;99.90;;;;;;4989919;28;20038;-59
2021/10/04 04:18:37;;;;;;;25.35;3.60;;;11.50;99.90;;;;;;4991424;28;20060;-60
2021/10/04 04:21:03;;;;;;;18.20;3.72;;;11.50;99.90;;;;;;4990615;28;20030;-59
2021/10/04 04:23:29;;;;;;;23.67;3.53;;;11.50;99.90;;;;;;4990032;28;20120;-58
2021/10/04 04:25:55;;;;;;;22.58;4.03;;;11.60;99.90;;;;;;4990510;28;20516;-61
2021/10/04 04:28:21;;;;;;;23.92;4.10;;;11.70;99.90;;;;;;4991191;28;20046;-59
2021/10/04 04:30:47;;;;;;;21.25;3.53;;;11.70;99.90;;;;;;4989786;28;20050;-58
2021/10/04 04:33:12;;;;;;;15.15;2.92;;;11.70;99.90;;;;;;4991317;28;20034;-62
2021/10/04 04:35:38;;;;;;;19.85;3.15;;;11.70;99.90;;;;;;4989009;28;20038;-59
2021/10/04 04:38:04;;;;;;;19.67;3.70;;;11.70;99.90;;;;;;4991530;28;20034;-58
2021/10/04 04:40:29;;;;;;;14.02;2.65;;;11.70;99.90;;;;;;4988433;28;20424;-59
2021/10/04 04:42:55;;;;;;;13.50;2.85;;;11.60;99.90;;;;;;4997308;28;20048;-59
2021/10/04 04:45:21;;;;;;;10.63;2.05;;;11.50;99.90;;;;;;4994158;28;20058;-58
2021/10/04 04:47:48;;;;;;;13.43;2.53;;;11.40;99.90;;;;;;4991183;28;20451;-60
2021/10/04 04:50:15;;;;;;;20.10;2.42;;;11.30;99.90;;;;;;4990316;28;20034;-60
2021/10/04 04:52:41;;;;;;;16.30;2.55;;;11.30;99.90;;;;;;4991137;28;20462;-59
2021/10/04 04:55:07;;;;;;;11.13;1.90;;;11.30;99.90;;;;;;4993890;28;20133;-57
2021/10/04 04:57:33;;;;;;;21.13;3.10;;;11.30;99.90;;;;;;4995857;28;20027;-60
2021/10/04 04:59:59;;;;;;;13.48;2.58;;;11.30;99.90;;;;;;4993887;28;20045;-58
2021/10/04 05:02:26;;;;;;;14.15;2.90;;;11.30;99.90;;;;;;4995304;28;20054;-61
2021/10/04 05:04:51;;;;;;;13.55;3.15;;;11.30;99.90;;;;;;4994080;28;20076;-58
2021/10/04 05:07:17;;;;;;;15.15;2.90;;;11.30;99.90;;;;;;4994647;28;20046;-60
2021/10/04 05:09:43;;;;;;;17.67;3.00;;;11.30;99.90;;;;;;4994063;28;20030;-59
2021/10/04 05:12:09;;;;;;;19.38;3.38;;;11.30;99.90;;;;;;4992998;28;20030;-58
2021/10/04 05:14:35;;;;;;;15.48;3.13;;;11.40;99.90;;;;;;4993112;28;20038;-60
2021/10/04 05:17:01;;;;;;;19.75;2.95;;;11.40;99.90;;;;;;4993993;28;20022;-61
2021/10/04 05:19:27;;;;;;;22.10;3.63;;;11.40;99.90;;;;;;4993753;28;20030;-60
2021/10/04 05:21:53;;;;;;;13.07;2.47;;;11.40;99.90;;;;;;4994175;28;20042;-58
2021/10/04 05:24:19;;;;;;;19.92;3.10;;;11.40;99.90;;;;;;4994523;28;20077;-60
2021/10/04 05:26:46;;;;;;;16.63;2.85;;;11.30;99.90;;;;;;4993548;28;20077;-57
2021/10/04 05:29:11;;;;;;;12.90;2.55;;;11.40;99.90;;;;;;4994140;28;20030;-59
2021/10/04 05:31:37;;;;;;;10.75;2.13;;;11.40;99.90;;;;;;4993188;28;20489;-61
2021/10/04 05:34:03;;;;;;;14.40;2.58;;;11.30;99.90;;;;;;4994516;28;20493;-60
2021/10/04 05:36:30;;;;;;;10.57;1.92;;;11.30;99.90;;;;;;4993598;28;20500;-59
2021/10/04 05:38:56;;;;;;;12.02;2.33;;;11.30;99.90;;;;;;4994417;28;20094;-59
2021/10/04 05:41:21;;;;;;;9.73;1.88;;;11.40;99.90;;;;;;4993622;28;20042;-59
2021/10/04 05:43:47;;;;;;;17.08;4.00;;;11.30;99.90;;;;;;4993553;28;20034;-59
2021/10/04 05:46:13;;;;;;;14.23;2.45;;;11.40;99.90;;;;;;4993116;28;20476;-60
2021/10/04 05:48:39;;;;;;;10.63;2.42;;;11.30;99.90;;;;;;4994110;28;20392;-59
2021/10/04 05:51:09;;;;;;;6.70;1.42;;;11.30;99.90;;;;;;4989480;28;20465;-60
2021/10/04 05:53:35;;;;;;;23.27;3.60;;;11.20;99.90;;;;;;4994206;28;20499;-57
2021/10/04 05:56:01;;;;;;;13.38;2.22;;;11.20;99.90;;;;;;4993152;28;20049;-59
2021/10/04 05:58:27;;;;;;;11.05;1.83;;;11.20;99.90;;;;;;4994069;28;20049;-58
2021/10/04 06:00:53;;;;;;;9.45;1.90;;;11.20;99.90;;;;;;4992407;28;20027;-58
2021/10/04 06:03:19;;;;;;;6.55;1.98;;;11.20;99.90;;;;;;4993975;28;20033;-58
2021/10/04 06:05:44;;;;;;;10.65;1.63;;;11.10;99.90;;;;;;4992952;28;20038;-60
2021/10/04 06:08:10;;;;;;;5.07;1.42;;;11.10;99.90;;;;;;4992557;28;20080;-58
2021/10/04 06:10:36;;;;;;;8.18;1.92;;;11.10;99.90;;;;;;4992856;28;20030;-59
2021/10/04 06:13:02;;;;;;;8.35;1.63;;;11.00;99.90;;;;;;4993741;28;20030;-57
2021/10/04 06:15:28;;;;;;;7.93;1.70;;;10.90;99.90;;;;;;4991430;28;20026;-58
2021/10/04 06:17:54;;;;;;;9.70;1.80;;;10.90;99.90;;;;;;4993757;28;20034;-59
2021/10/04 06:20:20;;;;;;;9.15;2.15;;;10.90;99.90;;;;;;4992358;28;20587;-59
2021/10/04 06:22:46;;;;;;;9.75;2.20;;;10.90;99.90;;;;;;4993635;28;20027;-59
2021/10/04 06:25:15;;;;;;;13.30;2.13;;;11.00;99.90;;;;;;4992824;28;20121;-58
2021/10/04 06:27:42;;;;;;;11.07;2.95;;;11.00;99.90;;;;;;4993203;28;20499;-59
2021/10/04 06:30:09;;;;;;;10.30;2.28;;;11.10;99.90;;;;;;4991062;28;20425;-60
2021/10/04 06:32:36;;;;;;;8.77;2.17;;;11.00;99.90;;;;;;4984863;28;20038;-59
2021/10/04 06:35:02;;;;;;;11.73;2.08;;;11.10;99.90;;;;;;4990576;28;20050;-59
2021/10/04 06:37:27;;;;;;;8.88;1.80;;;11.10;99.90;;;;;;4992738;28;20112;-60
2021/10/04 06:39:54;;;;;;;7.15;1.85;;;11.10;99.90;;;;;;4992372;28;20162;-60
2021/10/04 06:42:24;;;;;;;12.02;1.73;;;11.10;99.90;;;;;;4987639;28;20031;-60
2021/10/04 06:44:54;;;;;;;5.30;1.70;;;11.10;99.90;;;;;;4992980;28;20038;-60
2021/10/04 06:47:20;;;;;;;10.65;2.25;;;11.20;99.90;;;;;;4992216;28;20030;-60
2021/10/04 06:49:46;;;;;;;11.50;2.33;;;11.20;99.90;;;;;;4992618;28;20036;-60
2021/10/04 06:52:12;;;;;;;10.65;2.10;;;11.20;99.90;;;;;;4992200;28;20465;-60
2021/10/04 06:54:37;;;;;;;15.75;4.15;;;11.30;99.90;;;;;;4992721;28;20036;-59
2021/10/04 06:57:03;;;;;;;12.13;2.33;;;11.30;99.90;;;;;;4992143;28;20038;-59
2021/10/04 06:59:29;;;;;;;13.50;2.63;;;11.40;99.90;;;;;;5002089;28;20432;-62
2021/10/04 07:01:56;;;;;;;10.68;2.00;;;11.40;99.90;;;;;;4988770;28;20034;-62
2021/10/04 07:04:21;;;;;;;10.98;2.00;;;11.50;99.90;;;;;;4987280;28;20038;-60
2021/10/04 07:06:47;;;;;;;11.98;2.63;;;11.50;99.90;;;;;;5003394;28;20120;-60
2021/10/04 07:09:13;;;;;;;7.40;1.70;;;11.50;99.90;;;;;;4994440;28;20037;-60
2021/10/04 07:11:38;;;;;;;10.70;1.83;;;11.50;99.90;;;;;;5000171;28;20113;-60
2021/10/04 07:14:04;;;;;;;12.18;2.13;;;11.50;99.90;;;;;;4992452;28;20103;-59
2021/10/04 07:16:30;;;;;;;8.82;1.67;;;11.50;99.90;;;;;;4990884;28;20058;-59
2021/10/04 07:18:55;;;;;;;9.55;2.05;;;11.50;99.90;;;;;;5008900;28;20077;-62
2021/10/04 07:21:21;;;;;;;9.10;1.90;;;11.50;99.90;;;;;;5007460;28;20397;-59
2021/10/04 07:23:47;;;;;;;7.40;3.30;;;11.50;99.90;;;;;;5004795;28;20057;-61
2021/10/04 07:26:13;;;;;;;10.00;2.20;;;11.50;99.90;;;;;;5000782;28;20125;-62
2021/10/04 07:28:39;;;;;;;15.35;3.20;;;11.60;99.90;;;;;;5003865;28;20461;-60
2021/10/04 07:31:05;;;;;;;12.18;3.05;;;11.60;99.90;;;;;;4997820;28;20043;-59
2021/10/04 07:33:31;;;;;;;10.10;1.88;;;11.70;99.90;;;;;;4990271;28;20097;-62
2021/10/04 07:35:57;;;;;;;12.85;2.20;;;11.70;99.90;;;;;;4996510;28;20092;-62
2021/10/04 07:38:24;;;;;;;8.40;1.77;;;11.70;99.90;;;;;;4997372;28;20031;-61
2021/10/04 07:40:49;;;;;;;10.85;2.00;;;11.70;99.90;;;;;;5008551;28;20036;-59
2021/10/04 07:43:15;;;;;;;13.90;3.42;;;11.70;99.90;;;;;;5005057;28;20026;-61
2021/10/04 07:45:41;;;;;;;10.30;2.08;;;11.70;99.90;;;;;;4990367;28;20042;-59
2021/10/04 07:48:07;;;;;;;9.02;2.00;;;11.80;99.90;;;;;;4992720;28;20085;-61
2021/10/04 07:50:34;;;;;;;12.95;2.63;;;11.80;99.90;;;;;;4991357;28;20026;-59
2021/10/04 07:52:59;;;;;;;11.45;4.63;;;11.80;99.90;;;;;;4991507;28;20081;-59
2021/10/04 07:55:25;;;;;;;5.60;1.70;;;11.80;99.90;;;;;;4991308;28;20423;-60
2021/10/04 07:57:51;;;;;;;6.85;1.90;;;11.80;99.90;;;;;;4991260;28;20041;-60
2021/10/04 08:00:19;;;;;;;5.07;1.30;;;11.90;99.90;;;;;;4991908;28;20061;-59
2021/10/04 08:02:45;;;;;;;7.80;1.67;;;12.20;99.90;;;;;;4990513;28;20052;-61
2021/10/04 08:05:12;;;;;;;6.22;1.45;;;12.50;99.90;;;;;;4991973;28;20035;-60
2021/10/04 08:07:38;;;;;;;9.07;1.52;;;12.90;99.90;;;;;;4991093;28;20034;-62
2021/10/04 08:10:05;;;;;;;8.52;1.88;;;13.00;99.90;;;;;;4990698;28;20128;-61
2021/10/04 08:12:31;;;;;;;4.80;1.30;;;13.30;99.90;;;;;;4975584;28;20031;-62
2021/10/04 08:14:57;;;;;;;10.95;3.95;;;13.40;99.90;;;;;;4987225;28;20477;-60
2021/10/04 08:17:24;;;;;;;7.30;1.15;;;13.50;99.90;;;;;;4990784;28;20031;-59
2021/10/04 08:19:51;;;;;;;6.47;1.25;;;13.60;99.90;;;;;;4991194;28;20106;-62
2021/10/04 08:22:16;;;;;;;7.75;1.55;;;13.90;99.90;;;;;;4990849;28;20366;-61
2021/10/04 08:24:43;;;;;;;7.00;1.30;;;14.10;99.90;;;;;;4990575;28;20069;-60
2021/10/04 08:27:09;;;;;;;6.57;1.70;;;14.20;99.90;;;;;;4992083;28;20410;-60
2021/10/04 08:29:35;;;;;;;6.82;1.38;;;14.30;99.90;;;;;;5008583;28;20034;-60
2021/10/04 08:32:01;;;;;;;9.05;2.00;;;14.40;99.90;;;;;;4993690;28;20416;-59
2021/10/04 08:34:27;;;;;;;7.43;1.40;;;14.60;99.90;;;;;;5000618;28;20026;-59
2021/10/04 08:36:52;;;;;;;7.18;1.63;;;14.60;99.90;;;;;;4998310;28;20061;-58
2021/10/04 08:39:18;;;;;;;9.90;1.98;;;14.80;99.90;;;;;;4994825;28;20034;-58
2021/10/04 08:41:44;;;;;;;9.18;1.80;;;14.90;99.90;;;;;;4994088;28;20034;-59
2021/10/04 08:44:12;;;;;;;7.75;1.73;;;15.00;99.90;;;;;;4996366;28;20080;-59
2021/10/04 08:46:44;;;;;;;8.48;1.55;;;15.10;99.90;;;;;;4992099;28;20057;-59
2021/10/04 08:49:11;;;;;;;8.40;1.65;;;15.20;99.90;;;;;;5000494;28;20105;-61
2021/10/04 08:51:37;;;;;;;9.73;1.80;;;15.20;99.90;;;;;;4998125;28;20129;-59
2021/10/04 08:54:06;;;;;;;8.50;1.67;;;15.20;99.90;;;;;;4993551;28;20455;-59
2021/10/04 08:56:32;;;;;;;8.35;1.80;;;15.30;99.90;;;;;;4992513;28;20122;-59
2021/10/04 08:58:58;;;;;;;6.20;1.65;;;15.20;99.90;;;;;;4988692;28;20045;-57
2021/10/04 09:01:24;;;;;;;9.23;1.63;;;15.00;99.90;;;;;;4993767;28;20473;-59
2021/10/04 09:04:00;;;;;;;6.45;1.77;;;14.90;99.90;;;;;;4983458;28;20101;-60
2021/10/04 09:06:33;;;;;;;5.25;1.40;;;14.80;99.90;;;;;;4994159;28;20049;-60
2021/10/04 09:09:01;;;;;;;5.60;1.45;;;14.90;99.90;;;;;;4994462;28;20018;-59
2021/10/04 09:11:36;;;;;;;11.95;1.88;;;15.10;99.90;;;;;;4994939;28;20054;-61
2021/10/04 09:14:11;;;;;;;7.63;1.75;;;15.10;99.90;;;;;;4987275;28;20034;-60
2021/10/04 09:17:03;;;;;;;8.20;1.80;;;15.00;99.90;;;;;;4991315;28;20029;-60
2021/10/04 09:19:40;;;;;;;8.27;1.77;;;15.00;99.90;;;;;;4994976;28;20049;-62
2021/10/04 09:22:21;;;;;;;6.65;1.80;;;15.00;99.90;;;;;;4991678;28;20060;-61
2021/10/04 09:24:56;;;;;;;7.70;1.60;;;14.90;99.90;;;;;;4993975;28;20395;-61
2021/10/04 09:27:32;;;;;;;8.48;1.52;;;14.90;99.90;;;;;;4989930;28;20081;-59
2021/10/04 09:30:00;;;;;;;8.20;1.33;;;15.00;99.90;;;;;;4994425;28;20027;-59
2021/10/04 09:32:30;;;;;;;7.15;1.35;;;15.00;99.90;;;;;;4993487;28;20026;-59
2021/10/04 09:35:21;;;;;;;6.68;1.52;;;15.00;99.90;;;;;;4987273;28;20023;-58
2021/10/04 09:37:58;;;;;;;7.13;1.48;;;15.00;99.90;;;;;;4993522;28;20777;-58
2021/10/04 09:40:29;;;;;;;7.65;1.75;;;15.00;99.90;;;;;;4993684;28;20035;-57
2021/10/04 09:42:54;;;;;;;8.98;1.83;;;15.10;99.90;;;;;;4986852;28;20041;-57
2021/10/04 09:45:21;;;;;;;8.07;2.03;;;15.20;99.90;;;;;;4993200;28;20034;-58
2021/10/04 09:47:47;;;;;;;6.05;1.40;;;15.20;99.90;;;;;;4992267;28;20042;-60
2021/10/04 09:50:15;;;;;;;8.38;1.70;;;15.20;99.90;;;;;;4994339;28;20136;-59
2021/10/04 09:52:58;;;;;;;8.60;1.73;;;15.10;99.90;;;;;;4993244;28;20030;-59
2021/10/04 09:55:41;;;;;;;7.25;1.52;;;15.10;99.90;;;;;;4994232;28;20085;-60
2021/10/04 09:58:18;;;;;;;8.13;1.83;;;15.10;99.90;;;;;;4992624;28;20041;-59
2021/10/04 10:00:54;;;;;;;10.60;1.95;;;15.20;99.90;;;;;;4994065;28;20113;-61
2021/10/04 10:03:31;;;;;;;7.85;1.80;;;15.30;99.90;;;;;;5006773;28;20486;-60
2021/10/04 10:05:59;;;;;;;9.32;2.17;;;15.50;99.90;;;;;;4992881;28;20117;-58
2021/10/04 10:08:28;;;;;;;6.90;1.60;;;15.60;99.90;;;;;;4991106;28;20026;-59
2021/10/04 10:10:56;;;;;;;8.90;1.45;;;15.60;99.90;;;;;;4992620;28;20038;-58
2021/10/04 10:13:23;;;;;;;9.18;1.92;;;15.60;99.90;;;;;;4992803;28;20404;-60
2021/10/04 10:16:09;;;;;;;6.03;1.60;;;15.80;99.90;;;;;;4986513;28;20097;-59
2021/10/04 10:18:46;;;;;;;12.05;1.67;;;15.70;99.90;;;;;;4988076;28;20216;-59
2021/10/04 10:21:22;;;;;;;6.10;1.33;;;15.80;99.90;;;;;;4993370;28;20492;-59
2021/10/04 10:23:54;;;;;;;9.73;1.73;;;15.70;99.90;;;;;;4990876;28;20022;-59
2021/10/04 10:26:33;;;;;;;9.23;1.52;;;15.70;99.90;;;;;;4993273;28;20473;-59
2021/10/04 10:29:20;;;;;;;5.93;1.08;;;15.60;99.90;;;;;;4993057;28;20034;-60
2021/10/04 10:31:52;;;;;;;13.63;2.03;;;15.60;99.90;;;;;;4992539;28;20050;-61
2021/10/04 10:34:29;;;;;;;7.72;1.58;;;15.60;99.90;;;;;;4993170;28;20030;-59
2021/10/04 10:36:59;;;;;;;4.55;1.05;;;15.50;99.90;;;;;;4988016;28;20034;-60
2021/10/04 10:39:36;;;;;;;7.60;2.33;;;15.40;99.90;;;;;;4992706;28;20117;-62
2021/10/04 10:42:19;;;;;;;7.72;1.55;;;15.40;99.90;;;;;;4990168;28;20552;-59
2021/10/04 10:44:57;;;;;;;13.25;3.53;;;15.30;99.90;;;;;;4993066;28;20030;-61
2021/10/04 10:47:35;;;;;;;8.48;2.58;;;15.50;99.90;;;;;;4992226;28;20104;-61
2021/10/04 10:50:09;;;;;;;9.38;2.05;;;15.70;99.90;;;;;;4986349;28;20034;-61
2021/10/04 10:52:43;;;;;;;7.65;1.80;;;15.80;99.90;;;;;;4991239;28;20034;-62
2021/10/04 10:55:20;;;;;;;8.68;1.70;;;16.00;99.90;;;;;;4980390;28;20054;-59
2021/10/04 10:57:52;;;;;;;7.13;1.70;;;16.20;99.90;;;;;;4991916;28;20480;-60
2021/10/04 11:00:28;;;;;;;10.00;2.00;;;16.20;99.90;;;;;;4992131;28;20105;-60
2021/10/04 11:02:59;;;;;;;3.30;1.23;;;16.20;99.90;;;;;;4991749;28;20034;-60
2021/10/04 11:05:49;;;;;;;9.65;1.73;;;16.10;99.90;;;;;;4992866;28;20038;-61
2021/10/04 11:08:19;;;;;;;5.70;1.27;;;16.00;99.90;;;;;;4986617;28;20545;-60
2021/10/04 11:10:47;;;;;;;9.73;1.40;;;15.80;99.90;;;;;;4992637;28;20034;-61
2021/10/04 11:13:33;;;;;;;7.30;1.55;;;15.70;99.90;;;;;;4989944;28;20034;-61
2021/10/04 11:16:05;;;;;;;6.18;1.50;;;15.70;99.90;;;;;;4989724;28;20057;-60
2021/10/04 11:18:43;;;;;;;7.43;1.30;;;15.80;99.90;;;;;;4989974;28;20421;-60
2021/10/04 11:21:15;;;;;;;8.68;1.60;;;15.90;99.90;;;;;;4983622;28;20031;-61
2021/10/04 11:23:45;;;;;;;8.40;1.55;;;16.00;99.90;;;;;;4992580;28;20089;-59
2021/10/04 11:26:18;;;;;;;6.85;1.45;;;16.20;99.90;;;;;;4990354;28;20385;-59
2021/10/04 11:28:47;;;;;;;4.53;1.48;;;16.40;99.90;;;;;;4994627;28;20030;-63
2021/10/04 11:31:16;;;;;;;5.72;1.40;;;16.50;99.90;;;;;;4989863;28;20469;-62
2021/10/04 11:34:03;;;;;;;7.78;1.60;;;16.60;99.90;;;;;;4989441;28;20388;-59
2021/10/04 11:36:30;;;;;;;10.52;1.50;;;16.70;99.90;;;;;;4991047;28;20058;-59
2021/10/04 11:39:00;;;;;;;11.70;2.28;;;16.70;99.90;;;;;;4990657;28;20031;-59
2021/10/04 11:41:25;;;;;;;7.97;1.85;;;16.70;99.90;;;;;;4991439;28;20057;-60
2021/10/04 11:43:58;;;;;;;5.25;1.92;;;16.80;99.90;;;;;;4988176;28;20030;-59
2021/10/04 11:46:27;;;;;;;9.80;1.70;;;16.90;99.90;;;;;;4991079;28;20055;-61
2021/10/04 11:49:13;;;;;;;7.03;1.70;;;17.00;99.90;;;;;;4993762;28;20035;-60
2021/10/04 11:51:50;;;;;;;4.65;1.65;;;17.10;99.90;;;;;;4989611;28;20038;-60
2021/10/04 11:54:34;;;;;;;7.45;1.90;;;17.20;99.90;;;;;;4989058;28;20029;-60
2021/10/04 11:57:01;;;;;;;10.50;2.13;;;17.30;99.90;;;;;;4988036;28;20488;-61
2021/10/04 11:59:27;;;;;;;8.05;1.77;;;17.20;99.90;;;;;;4990838;28;20795;-60
2021/10/04 12:01:54;;;;;;;17.02;2.90;;;17.30;99.90;;;;;;4994952;28;20045;-60
2021/10/04 12:04:21;;;;;;;5.80;1.70;;;17.30;99.90;;;;;;4990622;28;20421;-59
2021/10/04 12:06:48;;;;;;;5.35;1.40;;;17.40;99.90;;;;;;4980769;28;20806;-59
2021/10/04 12:09:21;;;;;;;10.30;1.77;;;17.50;99.90;;;;;;4989763;28;20084;-60
2021/10/04 12:11:55;;;;;;;10.25;1.75;;;17.50;99.90;;;;;;4994677;28;20026;-60
2021/10/04 12:14:22;;;;;;;6.25;1.83;;;17.70;99.90;;;;;;4983479;28;20113;-62
2021/10/04 12:16:50;;;;;;;7.95;1.85;;;17.80;99.90;;;;;;4991340;28;20048;-59
2021/10/04 12:19:17;;;;;;;9.73;1.73;;;17.80;99.90;;;;;;4990185;28;20030;-60
2021/10/04 12:21:47;;;;;;;6.53;1.63;;;17.80;99.90;;;;;;4989743;28;20027;-59
2021/10/04 12:24:24;;;;;;;6.85;1.40;;;17.80;99.90;;;;;;4988223;28;20026;-60
2021/10/04 12:27:09;;;;;;;6.78;1.75;;;17.70;99.90;;;;;;4993038;28;20045;-60
2021/10/04 12:29:44;;;;;;;8.30;1.63;;;17.70;99.90;;;;;;4989722;28;20025;-60
2021/10/04 12:32:34;;;;;;;9.27;2.03;;;17.70;99.90;;;;;;5002507;28;20537;-59
2021/10/04 12:35:09;;;;;;;6.28;1.45;;;17.80;99.90;;;;;;4999570;28;20058;-61
2021/10/04 12:37:46;;;;;;;12.82;2.30;;;17.80;99.90;;;;;;4993442;28;20034;-61
2021/10/04 12:40:17;;;;;;;9.38;1.70;;;17.60;99.90;;;;;;4991252;28;20023;-60
2021/10/04 12:42:44;;;;;;;8.05;1.80;;;17.40;99.90;;;;;;4989804;28;20034;-60
2021/10/04 12:45:13;;;;;;;7.60;1.80;;;17.40;99.90;;;;;;4988138;28;20046;-62